sensor_id;sensor_type;location;lat;lon;timestamp;P1;durP1;ratioP1;P2;durP2;ratioP2
65971;SDS011;52726;48.852;9.152;2022-10-15T00:01:23;0.73;;;0.50;;
65971;SDS011;52726;48.852;9.152;2022-10-15T00:03:50;0.90;;;0.70;;
65971;SDS011;52726;48.852;9.152;2022-10-15T00:06:16;1.05;;;0.52;;
65971;SDS011;52726;48.852;9.152;2022-10-15T00:08:43;3.15;;;0.80;;
65971;SDS011;52726;48.852;9.152;2022-10-15T00:11:19;5.72;;;0.80;;
65971;SDS011;52726;48.852;9.152;2022-10-15T00:13:46;1.02;;;0.80;;
65971;SDS011;52726;48.852;9.152;2022-10-15T00:16:14;1.35;;;0.65;;
65971;SDS011;52726;48.852;9.152;2022-10-15T00:18:41;1.00;;;1.00;;
65971;SDS011;52726;48.852;9.152;2022-10-15T00:21:11;0.73;;;0.70;;
65971;SDS011;52726;48.852;9.152;2022-10-15T00:23:39;4.18;;;1.05;;
65971;SDS011;52726;48.852;9.152;2022-10-15T00:26:08;1.25;;;0.98;;
65971;SDS011;52726;48.852;9.152;2022-10-15T00:28:35;5.13;;;0.95;;
65971;SDS011;52726;48.852;9.152;2022-10-15T00:31:03;0.52;;;0.52;;
65971;SDS011;52726;48.852;9.152;2022-10-15T00:33:30;0.50;;;0.50;;
65971;SDS011;52726;48.852;9.152;2022-10-15T00:36:03;1.55;;;0.50;;
65971;SDS011;52726;48.852;9.152;2022-10-15T00:38:31;0.80;;;0.43;;
65971;SDS011;52726;48.852;9.152;2022-10-15T00:40:57;2.28;;;0.73;;
65971;SDS011;52726;48.852;9.152;2022-10-15T00:46:17;0.70;;;0.70;;
65971;SDS011;52726;48.852;9.152;2022-10-15T00:48:47;0.30;;;0.30;;
65971;SDS011;52726;48.852;9.152;2022-10-15T00:51:17;0.22;;;0.22;;
65971;SDS011;52726;48.852;9.152;2022-10-15T00:53:45;0.90;;;0.40;;
65971;SDS011;52726;48.852;9.152;2022-10-15T00:56:11;1.42;;;0.32;;
65971;SDS011;52726;48.852;9.152;2022-10-15T00:58:39;0.45;;;0.22;;
65971;SDS011;52726;48.852;9.152;2022-10-15T01:01:04;1.10;;;0.57;;
65971;SDS011;52726;48.852;9.152;2022-10-15T01:03:30;3.58;;;0.50;;
65971;SDS011;52726;48.852;9.152;2022-10-15T01:05:55;3.38;;;0.32;;
65971;SDS011;52726;48.852;9.152;2022-10-15T01:08:21;0.30;;;0.30;;
65971;SDS011;52726;48.852;9.152;2022-10-15T01:13:26;1.50;;;0.40;;
65971;SDS011;52726;48.852;9.152;2022-10-15T01:16:20;2.42;;;0.45;;
65971;SDS011;52726;48.852;9.152;2022-10-15T01:18:53;2.90;;;0.52;;
65971;SDS011;52726;48.852;9.152;2022-10-15T01:21:28;0.20;;;0.20;;
65971;SDS011;52726;48.852;9.152;2022-10-15T01:24:41;0.55;;;0.40;;
65971;SDS011;52726;48.852;9.152;2022-10-15T01:27:16;0.80;;;0.55;;
65971;SDS011;52726;48.852;9.152;2022-10-15T01:32:47;1.45;;;0.52;;
65971;SDS011;52726;48.852;9.152;2022-10-15T01:44:13;0.13;;;0.13;;
65971;SDS011;52726;48.852;9.152;2022-10-15T01:46:50;0.45;;;0.32;;
65971;SDS011;52726;48.852;9.152;2022-10-15T01:49:22;0.30;;;0.30;;
65971;SDS011;52726;48.852;9.152;2022-10-15T01:51:50;1.17;;;0.25;;
65971;SDS011;52726;48.852;9.152;2022-10-15T01:54:19;0.65;;;0.60;;
65971;SDS011;52726;48.852;9.152;2022-10-15T01:56:49;0.82;;;0.38;;
65971;SDS011;52726;48.852;9.152;2022-10-15T01:59:17;1.45;;;0.30;;
65971;SDS011;52726;48.852;9.152;2022-10-15T02:01:45;1.85;;;0.22;;
65971;SDS011;52726;48.852;9.152;2022-10-15T02:04:18;0.20;;;0.20;;
65971;SDS011;52726;48.852;9.152;2022-10-15T02:06:46;0.52;;;0.47;;
65971;SDS011;52726;48.852;9.152;2022-10-15T02:12:07;0.20;;;0.20;;
65971;SDS011;52726;48.852;9.152;2022-10-15T02:14:52;0.40;;;0.30;;
65971;SDS011;52726;48.852;9.152;2022-10-15T02:20:50;0.20;;;0.20;;
65971;SDS011;52726;48.852;9.152;2022-10-15T02:26:18;0.30;;;0.30;;
65971;SDS011;52726;48.852;9.152;2022-10-15T02:28:47;1.08;;;0.32;;
65971;SDS011;52726;48.852;9.152;2022-10-15T02:31:17;0.17;;;0.17;;
65971;SDS011;52726;48.852;9.152;2022-10-15T02:33:44;1.20;;;0.52;;
65971;SDS011;52726;48.852;9.152;2022-10-15T02:36:11;1.90;;;0.57;;
65971;SDS011;52726;48.852;9.152;2022-10-15T02:38:37;0.73;;;0.43;;
65971;SDS011;52726;48.852;9.152;2022-10-15T02:41:06;3.33;;;1.10;;
65971;SDS011;52726;48.852;9.152;2022-10-15T02:43:33;3.03;;;0.40;;
65971;SDS011;52726;48.852;9.152;2022-10-15T02:46:01;1.48;;;0.25;;
65971;SDS011;52726;48.852;9.152;2022-10-15T02:48:26;7.22;;;0.40;;
65971;SDS011;52726;48.852;9.152;2022-10-15T02:50:52;0.25;;;0.25;;
65971;SDS011;52726;48.852;9.152;2022-10-15T02:53:17;4.88;;;0.70;;
65971;SDS011;52726;48.852;9.152;2022-10-15T02:55:42;0.30;;;0.30;;
65971;SDS011;52726;48.852;9.152;2022-10-15T02:58:08;0.20;;;0.20;;
65971;SDS011;52726;48.852;9.152;2022-10-15T03:00:33;0.32;;;0.32;;
65971;SDS011;52726;48.852;9.152;2022-10-15T03:02:58;0.65;;;0.35;;
65971;SDS011;52726;48.852;9.152;2022-10-15T03:05:24;2.05;;;0.28;;
65971;SDS011;52726;48.852;9.152;2022-10-15T03:07:49;3.50;;;0.40;;
65971;SDS011;52726;48.852;9.152;2022-10-15T03:10:15;1.38;;;0.40;;
65971;SDS011;52726;48.852;9.152;2022-10-15T03:12:40;0.30;;;0.30;;
65971;SDS011;52726;48.852;9.152;2022-10-15T03:15:06;3.17;;;0.38;;
65971;SDS011;52726;48.852;9.152;2022-10-15T03:17:32;0.30;;;0.30;;
65971;SDS011;52726;48.852;9.152;2022-10-15T03:19:57;1.10;;;0.32;;
65971;SDS011;52726;48.852;9.152;2022-10-15T03:22:22;0.40;;;0.40;;
65971;SDS011;52726;48.852;9.152;2022-10-15T03:24:48;0.10;;;0.10;;
65971;SDS011;52726;48.852;9.152;2022-10-15T03:27:13;0.65;;;0.20;;
65971;SDS011;52726;48.852;9.152;2022-10-15T03:29:38;2.78;;;0.40;;
65971;SDS011;52726;48.852;9.152;2022-10-15T03:32:04;3.50;;;0.40;;
65971;SDS011;52726;48.852;9.152;2022-10-15T03:34:29;1.67;;;0.38;;
65971;SDS011;52726;48.852;9.152;2022-10-15T03:36:54;0.38;;;0.30;;
65971;SDS011;52726;48.852;9.152;2022-10-15T03:39:20;0.47;;;0.15;;
65971;SDS011;52726;48.852;9.152;2022-10-15T03:41:45;0.10;;;0.10;;
65971;SDS011;52726;48.852;9.152;2022-10-15T03:44:12;0.20;;;0.10;;
65971;SDS011;52726;48.852;9.152;2022-10-15T03:46:37;1.58;;;0.40;;
65971;SDS011;52726;48.852;9.152;2022-10-15T03:49:03;4.13;;;0.22;;
65971;SDS011;52726;48.852;9.152;2022-10-15T03:51:28;1.88;;;0.22;;
65971;SDS011;52726;48.852;9.152;2022-10-15T03:53:53;1.25;;;0.35;;
65971;SDS011;52726;48.852;9.152;2022-10-15T03:56:19;1.35;;;0.90;;
65971;SDS011;52726;48.852;9.152;2022-10-15T03:58:44;0.28;;;0.17;;
65971;SDS011;52726;48.852;9.152;2022-10-15T04:01:10;2.47;;;0.35;;
65971;SDS011;52726;48.852;9.152;2022-10-15T04:03:37;0.17;;;0.10;;
65971;SDS011;52726;48.852;9.152;2022-10-15T04:06:03;3.95;;;0.30;;
65971;SDS011;52726;48.852;9.152;2022-10-15T04:08:29;0.17;;;0.17;;
65971;SDS011;52726;48.852;9.152;2022-10-15T04:10:54;0.22;;;0.22;;
65971;SDS011;52726;48.852;9.152;2022-10-15T04:13:19;0.43;;;0.25;;
65971;SDS011;52726;48.852;9.152;2022-10-15T04:15:45;3.63;;;0.50;;
65971;SDS011;52726;48.852;9.152;2022-10-15T04:18:10;0.28;;;0.28;;
65971;SDS011;52726;48.852;9.152;2022-10-15T04:20:36;0.13;;;0.13;;
65971;SDS011;52726;48.852;9.152;2022-10-15T04:23:01;1.02;;;0.35;;
65971;SDS011;52726;48.852;9.152;2022-10-15T04:25:27;0.20;;;0.20;;
65971;SDS011;52726;48.852;9.152;2022-10-15T04:27:52;0.30;;;0.30;;
65971;SDS011;52726;48.852;9.152;2022-10-15T04:30:18;0.55;;;0.20;;
65971;SDS011;52726;48.852;9.152;2022-10-15T04:32:43;0.28;;;0.28;;
65971;SDS011;52726;48.852;9.152;2022-10-15T04:35:08;0.98;;;0.30;;
65971;SDS011;52726;48.852;9.152;2022-10-15T04:37:34;0.15;;;0.15;;
65971;SDS011;52726;48.852;9.152;2022-10-15T04:39:59;0.55;;;0.28;;
65971;SDS011;52726;48.852;9.152;2022-10-15T04:42:27;0.10;;;0.10;;
65971;SDS011;52726;48.852;9.152;2022-10-15T04:44:53;1.90;;;0.20;;
65971;SDS011;52726;48.852;9.152;2022-10-15T04:47:19;0.25;;;0.20;;
65971;SDS011;52726;48.852;9.152;2022-10-15T04:49:44;3.38;;;0.22;;
65971;SDS011;52726;48.852;9.152;2022-10-15T04:52:10;5.18;;;0.70;;
65971;SDS011;52726;48.852;9.152;2022-10-15T04:54:35;3.53;;;0.20;;
65971;SDS011;52726;48.852;9.152;2022-10-15T04:57:01;1.15;;;0.45;;
65971;SDS011;52726;48.852;9.152;2022-10-15T04:59:30;0.80;;;0.30;;
65971;SDS011;52726;48.852;9.152;2022-10-15T05:01:55;0.77;;;0.40;;
65971;SDS011;52726;48.852;9.152;2022-10-15T05:04:24;6.15;;;0.38;;
65971;SDS011;52726;48.852;9.152;2022-10-15T05:06:49;4.50;;;0.40;;
65971;SDS011;52726;48.852;9.152;2022-10-15T05:09:14;1.55;;;0.20;;
65971;SDS011;52726;48.852;9.152;2022-10-15T05:11:40;0.75;;;0.30;;
65971;SDS011;52726;48.852;9.152;2022-10-15T05:14:05;0.20;;;0.20;;
65971;SDS011;52726;48.852;9.152;2022-10-15T05:16:31;7.78;;;0.57;;
65971;SDS011;52726;48.852;9.152;2022-10-15T05:18:59;0.73;;;0.40;;
65971;SDS011;52726;48.852;9.152;2022-10-15T05:21:26;0.20;;;0.20;;
65971;SDS011;52726;48.852;9.152;2022-10-15T05:23:52;3.15;;;0.50;;
65971;SDS011;52726;48.852;9.152;2022-10-15T05:26:19;1.30;;;0.30;;
65971;SDS011;52726;48.852;9.152;2022-10-15T05:28:46;1.27;;;0.40;;
65971;SDS011;52726;48.852;9.152;2022-10-15T05:31:13;0.75;;;0.10;;
65971;SDS011;52726;48.852;9.152;2022-10-15T05:33:41;2.30;;;0.50;;
65971;SDS011;52726;48.852;9.152;2022-10-15T05:36:16;1.00;;;0.35;;
65971;SDS011;52726;48.852;9.152;2022-10-15T05:38:42;4.15;;;0.57;;
65971;SDS011;52726;48.852;9.152;2022-10-15T05:41:15;2.95;;;0.40;;
65971;SDS011;52726;48.852;9.152;2022-10-15T05:43:41;0.35;;;0.30;;
65971;SDS011;52726;48.852;9.152;2022-10-15T05:46:06;2.85;;;0.40;;
65971;SDS011;52726;48.852;9.152;2022-10-15T05:48:32;0.93;;;0.93;;
65971;SDS011;52726;48.852;9.152;2022-10-15T05:51:05;6.05;;;0.50;;
65971;SDS011;52726;48.852;9.152;2022-10-15T05:53:32;0.88;;;0.52;;
65971;SDS011;52726;48.852;9.152;2022-10-15T05:55:57;0.10;;;0.10;;
65971;SDS011;52726;48.852;9.152;2022-10-15T05:58:26;3.35;;;1.08;;
65971;SDS011;52726;48.852;9.152;2022-10-15T06:00:57;3.38;;;0.50;;
65971;SDS011;52726;48.852;9.152;2022-10-15T06:03:23;4.70;;;0.75;;
65971;SDS011;52726;48.852;9.152;2022-10-15T06:05:50;1.48;;;0.43;;
65971;SDS011;52726;48.852;9.152;2022-10-15T06:08:16;0.47;;;0.30;;
65971;SDS011;52726;48.852;9.152;2022-10-15T06:10:41;0.30;;;0.30;;
65971;SDS011;52726;48.852;9.152;2022-10-15T06:13:07;5.47;;;0.40;;
65971;SDS011;52726;48.852;9.152;2022-10-15T06:15:33;4.07;;;0.75;;
65971;SDS011;52726;48.852;9.152;2022-10-15T06:17:59;2.10;;;0.28;;
65971;SDS011;52726;48.852;9.152;2022-10-15T06:20:25;0.40;;;0.40;;
65971;SDS011;52726;48.852;9.152;2022-10-15T06:22:55;1.05;;;0.60;;
65971;SDS011;52726;48.852;9.152;2022-10-15T06:25:21;1.85;;;0.45;;
65971;SDS011;52726;48.852;9.152;2022-10-15T06:30:34;4.28;;;0.38;;
65971;SDS011;52726;48.852;9.152;2022-10-15T06:32:59;2.67;;;0.35;;
65971;SDS011;52726;48.852;9.152;2022-10-15T06:35:25;3.05;;;0.70;;
65971;SDS011;52726;48.852;9.152;2022-10-15T06:37:54;0.30;;;0.30;;
65971;SDS011;52726;48.852;9.152;2022-10-15T06:40:20;3.95;;;0.68;;
65971;SDS011;52726;48.852;9.152;2022-10-15T06:42:45;2.47;;;0.60;;
65971;SDS011;52726;48.852;9.152;2022-10-15T06:45:10;0.47;;;0.30;;
65971;SDS011;52726;48.852;9.152;2022-10-15T06:47:36;4.80;;;0.38;;
65971;SDS011;52726;48.852;9.152;2022-10-15T06:50:04;3.50;;;0.60;;
65971;SDS011;52726;48.852;9.152;2022-10-15T06:52:30;1.50;;;0.60;;
65971;SDS011;52726;48.852;9.152;2022-10-15T06:54:56;0.47;;;0.40;;
65971;SDS011;52726;48.852;9.152;2022-10-15T06:57:21;1.15;;;0.45;;
65971;SDS011;52726;48.852;9.152;2022-10-15T06:59:49;2.88;;;0.88;;
65971;SDS011;52726;48.852;9.152;2022-10-15T07:02:14;3.53;;;0.60;;
65971;SDS011;52726;48.852;9.152;2022-10-15T07:04:41;0.65;;;0.40;;
65971;SDS011;52726;48.852;9.152;2022-10-15T07:07:07;1.98;;;0.88;;
65971;SDS011;52726;48.852;9.152;2022-10-15T07:09:35;1.35;;;0.70;;
65971;SDS011;52726;48.852;9.152;2022-10-15T07:12:01;2.88;;;0.90;;
65971;SDS011;52726;48.852;9.152;2022-10-15T07:14:27;2.08;;;0.93;;
65971;SDS011;52726;48.852;9.152;2022-10-15T07:16:52;1.80;;;0.82;;
65971;SDS011;52726;48.852;9.152;2022-10-15T07:19:18;1.52;;;0.98;;
65971;SDS011;52726;48.852;9.152;2022-10-15T07:21:43;4.00;;;0.85;;
65971;SDS011;52726;48.852;9.152;2022-10-15T07:24:08;1.20;;;0.70;;
65971;SDS011;52726;48.852;9.152;2022-10-15T07:26:34;1.02;;;0.88;;
65971;SDS011;52726;48.852;9.152;2022-10-15T07:29:11;3.90;;;0.95;;
65971;SDS011;52726;48.852;9.152;2022-10-15T07:31:36;3.10;;;0.85;;
65971;SDS011;52726;48.852;9.152;2022-10-15T07:34:02;1.55;;;1.10;;
65971;SDS011;52726;48.852;9.152;2022-10-15T07:36:27;0.68;;;0.68;;
65971;SDS011;52726;48.852;9.152;2022-10-15T07:38:53;1.30;;;0.80;;
65971;SDS011;52726;48.852;9.152;2022-10-15T07:41:18;3.10;;;0.90;;
65971;SDS011;52726;48.852;9.152;2022-10-15T07:43:43;0.70;;;0.70;;
65971;SDS011;52726;48.852;9.152;2022-10-15T07:46:09;4.57;;;1.00;;
65971;SDS011;52726;48.852;9.152;2022-10-15T07:48:34;3.67;;;0.88;;
65971;SDS011;52726;48.852;9.152;2022-10-15T07:51:01;1.15;;;0.93;;
65971;SDS011;52726;48.852;9.152;2022-10-15T07:53:31;2.90;;;0.93;;
65971;SDS011;52726;48.852;9.152;2022-10-15T07:55:57;0.60;;;0.60;;
65971;SDS011;52726;48.852;9.152;2022-10-15T07:58:24;0.60;;;0.60;;
65971;SDS011;52726;48.852;9.152;2022-10-15T08:00:50;2.60;;;0.52;;
65971;SDS011;52726;48.852;9.152;2022-10-15T08:03:17;0.47;;;0.47;;
65971;SDS011;52726;48.852;9.152;2022-10-15T08:05:42;0.70;;;0.63;;
65971;SDS011;52726;48.852;9.152;2022-10-15T08:08:07;0.40;;;0.32;;
65971;SDS011;52726;48.852;9.152;2022-10-15T08:10:34;0.55;;;0.52;;
65971;SDS011;52726;48.852;9.152;2022-10-15T08:13:00;1.65;;;0.77;;
65971;SDS011;52726;48.852;9.152;2022-10-15T08:15:25;3.00;;;0.63;;
65971;SDS011;52726;48.852;9.152;2022-10-15T08:17:51;0.50;;;0.50;;
65971;SDS011;52726;48.852;9.152;2022-10-15T08:20:16;1.10;;;0.80;;
65971;SDS011;52726;48.852;9.152;2022-10-15T08:22:44;1.38;;;0.82;;
65971;SDS011;52726;48.852;9.152;2022-10-15T08:25:10;2.25;;;0.95;;
65971;SDS011;52726;48.852;9.152;2022-10-15T08:27:35;2.05;;;0.90;;
65971;SDS011;52726;48.852;9.152;2022-10-15T08:30:01;0.60;;;0.60;;
65971;SDS011;52726;48.852;9.152;2022-10-15T08:32:30;1.50;;;0.98;;
65971;SDS011;52726;48.852;9.152;2022-10-15T08:34:55;1.75;;;0.65;;
65971;SDS011;52726;48.852;9.152;2022-10-15T08:37:20;0.70;;;0.60;;
65971;SDS011;52726;48.852;9.152;2022-10-15T08:39:46;0.75;;;0.75;;
65971;SDS011;52726;48.852;9.152;2022-10-15T08:42:14;2.05;;;0.93;;
65971;SDS011;52726;48.852;9.152;2022-10-15T08:44:45;1.85;;;0.73;;
65971;SDS011;52726;48.852;9.152;2022-10-15T08:49:53;0.60;;;0.60;;
65971;SDS011;52726;48.852;9.152;2022-10-15T08:55:04;1.77;;;0.57;;
65971;SDS011;52726;48.852;9.152;2022-10-15T09:00:10;2.58;;;0.65;;
65971;SDS011;52726;48.852;9.152;2022-10-15T09:02:38;4.15;;;0.93;;
65971;SDS011;52726;48.852;9.152;2022-10-15T09:07:35;2.63;;;1.00;;
65971;SDS011;52726;48.852;9.152;2022-10-15T09:10:19;0.57;;;0.57;;
65971;SDS011;52726;48.852;9.152;2022-10-15T09:13:13;0.70;;;0.70;;
65971;SDS011;52726;48.852;9.152;2022-10-15T09:16:08;3.05;;;0.98;;
65971;SDS011;52726;48.852;9.152;2022-10-15T09:18:35;0.70;;;0.50;;
65971;SDS011;52726;48.852;9.152;2022-10-15T09:21:05;5.70;;;1.30;;
65971;SDS011;52726;48.852;9.152;2022-10-15T09:23:34;1.85;;;1.27;;
65971;SDS011;52726;48.852;9.152;2022-10-15T09:31:12;1.65;;;0.68;;
65971;SDS011;52726;48.852;9.152;2022-10-15T09:36:23;1.00;;;0.75;;
65971;SDS011;52726;48.852;9.152;2022-10-15T09:39:03;2.67;;;0.68;;
65971;SDS011;52726;48.852;9.152;2022-10-15T09:42:07;3.60;;;1.17;;
65971;SDS011;52726;48.852;9.152;2022-10-15T09:44:38;2.42;;;0.90;;
65971;SDS011;52726;48.852;9.152;2022-10-15T09:50:03;3.72;;;0.63;;
65971;SDS011;52726;48.852;9.152;2022-10-15T09:57:44;0.50;;;0.50;;
65971;SDS011;52726;48.852;9.152;2022-10-15T10:00:12;5.45;;;0.68;;
65971;SDS011;52726;48.852;9.152;2022-10-15T10:02:39;0.60;;;0.60;;
65971;SDS011;52726;48.852;9.152;2022-10-15T10:05:27;0.70;;;0.50;;
65971;SDS011;52726;48.852;9.152;2022-10-15T10:08:15;1.58;;;0.50;;
65971;SDS011;52726;48.852;9.152;2022-10-15T10:10:55;1.05;;;1.00;;
65971;SDS011;52726;48.852;9.152;2022-10-15T10:16:15;4.13;;;0.60;;
65971;SDS011;52726;48.852;9.152;2022-10-15T10:18:43;3.42;;;0.47;;
65971;SDS011;52726;48.852;9.152;2022-10-15T10:21:29;2.38;;;0.40;;
65971;SDS011;52726;48.852;9.152;2022-10-15T10:26:43;0.30;;;0.30;;
65971;SDS011;52726;48.852;9.152;2022-10-15T10:29:10;0.82;;;0.57;;
65971;SDS011;52726;48.852;9.152;2022-10-15T10:31:42;0.47;;;0.47;;
65971;SDS011;52726;48.852;9.152;2022-10-15T10:34:11;4.30;;;1.55;;
65971;SDS011;52726;48.852;9.152;2022-10-15T10:36:39;0.40;;;0.40;;
65971;SDS011;52726;48.852;9.152;2022-10-15T10:41:50;1.05;;;0.50;;
65971;SDS011;52726;48.852;9.152;2022-10-15T10:47:11;0.40;;;0.40;;
65971;SDS011;52726;48.852;9.152;2022-10-15T10:52:25;0.35;;;0.35;;
65971;SDS011;52726;48.852;9.152;2022-10-15T10:55:15;0.50;;;0.50;;
65971;SDS011;52726;48.852;9.152;2022-10-15T11:00:19;2.47;;;0.52;;
65971;SDS011;52726;48.852;9.152;2022-10-15T11:02:48;0.63;;;0.63;;
65971;SDS011;52726;48.852;9.152;2022-10-15T11:05:16;0.60;;;0.60;;
65971;SDS011;52726;48.852;9.152;2022-10-15T11:07:50;1.63;;;0.43;;
65971;SDS011;52726;48.852;9.152;2022-10-15T11:10:31;0.38;;;0.38;;
65971;SDS011;52726;48.852;9.152;2022-10-15T11:19:37;1.05;;;0.50;;
65971;SDS011;52726;48.852;9.152;2022-10-15T11:24:43;1.95;;;0.73;;
65971;SDS011;52726;48.852;9.152;2022-10-15T11:27:30;0.73;;;0.70;;
65971;SDS011;52726;48.852;9.152;2022-10-15T11:30:17;4.28;;;0.75;;
65971;SDS011;52726;48.852;9.152;2022-10-15T11:32:55;0.88;;;0.40;;
65971;SDS011;52726;48.852;9.152;2022-10-15T11:35:59;0.50;;;0.50;;
65971;SDS011;52726;48.852;9.152;2022-10-15T11:52:56;1.33;;;0.70;;
65971;SDS011;52726;48.852;9.152;2022-10-15T11:58:30;6.93;;;0.65;;
65971;SDS011;52726;48.852;9.152;2022-10-15T12:01:02;1.75;;;1.17;;
65971;SDS011;52726;48.852;9.152;2022-10-15T12:03:33;1.47;;;0.73;;
65971;SDS011;52726;48.852;9.152;2022-10-15T12:06:08;3.20;;;0.95;;
65971;SDS011;52726;48.852;9.152;2022-10-15T12:08:38;1.13;;;0.73;;
65971;SDS011;52726;48.852;9.152;2022-10-15T12:22:07;0.65;;;0.52;;
65971;SDS011;52726;48.852;9.152;2022-10-15T12:29:45;0.70;;;0.65;;
65971;SDS011;52726;48.852;9.152;2022-10-15T12:32:34;3.05;;;0.93;;
65971;SDS011;52726;48.852;9.152;2022-10-15T12:35:01;0.50;;;0.50;;
65971;SDS011;52726;48.852;9.152;2022-10-15T12:37:42;0.65;;;0.65;;
65971;SDS011;52726;48.852;9.152;2022-10-15T12:40:24;1.48;;;0.60;;
65971;SDS011;52726;48.852;9.152;2022-10-15T12:42:57;0.90;;;0.82;;
65971;SDS011;52726;48.852;9.152;2022-10-15T12:45:32;1.40;;;0.70;;
65971;SDS011;52726;48.852;9.152;2022-10-15T12:50:29;3.67;;;1.10;;
65971;SDS011;52726;48.852;9.152;2022-10-15T12:58:03;0.50;;;0.50;;
65971;SDS011;52726;48.852;9.152;2022-10-15T13:01:26;2.40;;;0.88;;
65971;SDS011;52726;48.852;9.152;2022-10-15T13:03:52;2.60;;;0.57;;
65971;SDS011;52726;48.852;9.152;2022-10-15T13:09:31;10.23;;;1.25;;
65971;SDS011;52726;48.852;9.152;2022-10-15T13:11:35;1.20;;;1.13;;
65971;SDS011;52726;48.852;9.152;2022-10-15T13:16:39;2.70;;;1.48;;
65971;SDS011;52726;48.852;9.152;2022-10-15T13:19:16;1.85;;;0.60;;
65971;SDS011;52726;48.852;9.152;2022-10-15T13:21:48;0.98;;;0.85;;
65971;SDS011;52726;48.852;9.152;2022-10-15T13:24:16;2.35;;;0.95;;
65971;SDS011;52726;48.852;9.152;2022-10-15T13:26:42;0.60;;;0.60;;
65971;SDS011;52726;48.852;9.152;2022-10-15T13:29:14;2.47;;;0.80;;
65971;SDS011;52726;48.852;9.152;2022-10-15T13:31:43;1.13;;;0.52;;
65971;SDS011;52726;48.852;9.152;2022-10-15T13:34:12;1.67;;;0.77;;
65971;SDS011;52726;48.852;9.152;2022-10-15T13:36:40;13.38;;;1.65;;
65971;SDS011;52726;48.852;9.152;2022-10-15T13:39:07;0.98;;;0.88;;
65971;SDS011;52726;48.852;9.152;2022-10-15T13:41:53;2.00;;;0.63;;
65971;SDS011;52726;48.852;9.152;2022-10-15T13:44:41;4.05;;;0.88;;
65971;SDS011;52726;48.852;9.152;2022-10-15T13:47:27;3.95;;;0.93;;
65971;SDS011;52726;48.852;9.152;2022-10-15T13:52:42;2.40;;;0.98;;
65971;SDS011;52726;48.852;9.152;2022-10-15T13:55:18;2.22;;;1.00;;
65971;SDS011;52726;48.852;9.152;2022-10-15T13:57:55;1.15;;;0.65;;
65971;SDS011;52726;48.852;9.152;2022-10-15T14:00:25;2.75;;;0.90;;
65971;SDS011;52726;48.852;9.152;2022-10-15T14:03:11;2.50;;;1.02;;
65971;SDS011;52726;48.852;9.152;2022-10-15T14:05:40;7.13;;;1.40;;
65971;SDS011;52726;48.852;9.152;2022-10-15T14:08:13;2.80;;;0.75;;
65971;SDS011;52726;48.852;9.152;2022-10-15T14:10:40;2.53;;;1.00;;
65971;SDS011;52726;48.852;9.152;2022-10-15T14:13:07;6.45;;;1.08;;
65971;SDS011;52726;48.852;9.152;2022-10-15T14:15:41;9.48;;;0.90;;
65971;SDS011;52726;48.852;9.152;2022-10-15T14:18:32;10.85;;;1.00;;
65971;SDS011;52726;48.852;9.152;2022-10-15T14:21:00;2.42;;;0.93;;
65971;SDS011;52726;48.852;9.152;2022-10-15T14:23:27;1.10;;;0.95;;
65971;SDS011;52726;48.852;9.152;2022-10-15T14:25:53;2.78;;;1.35;;
65971;SDS011;52726;48.852;9.152;2022-10-15T14:28:21;4.50;;;1.33;;
65971;SDS011;52726;48.852;9.152;2022-10-15T14:30:48;1.30;;;1.10;;
65971;SDS011;52726;48.852;9.152;2022-10-15T14:36:25;1.65;;;0.90;;
65971;SDS011;52726;48.852;9.152;2022-10-15T14:42:06;5.80;;;1.35;;
65971;SDS011;52726;48.852;9.152;2022-10-15T14:44:49;6.97;;;1.27;;
65971;SDS011;52726;48.852;9.152;2022-10-15T14:47:22;2.05;;;1.25;;
65971;SDS011;52726;48.852;9.152;2022-10-15T14:49:53;3.53;;;1.42;;
65971;SDS011;52726;48.852;9.152;2022-10-15T14:52:20;7.65;;;1.70;;
65971;SDS011;52726;48.852;9.152;2022-10-15T14:55:12;2.70;;;1.30;;
65971;SDS011;52726;48.852;9.152;2022-10-15T14:57:40;2.03;;;1.30;;
65971;SDS011;52726;48.852;9.152;2022-10-15T15:00:23;1.58;;;1.05;;
65971;SDS011;52726;48.852;9.152;2022-10-15T15:02:53;5.65;;;1.02;;
65971;SDS011;52726;48.852;9.152;2022-10-15T15:05:20;1.38;;;1.27;;
65971;SDS011;52726;48.852;9.152;2022-10-15T15:07:50;1.48;;;1.15;;
65971;SDS011;52726;48.852;9.152;2022-10-15T15:10:16;1.42;;;1.20;;
65971;SDS011;52726;48.852;9.152;2022-10-15T15:12:44;1.95;;;1.00;;
65971;SDS011;52726;48.852;9.152;2022-10-15T15:15:15;2.60;;;1.17;;
65971;SDS011;52726;48.852;9.152;2022-10-15T15:17:42;1.15;;;0.90;;
65971;SDS011;52726;48.852;9.152;2022-10-15T15:20:09;1.52;;;1.00;;
65971;SDS011;52726;48.852;9.152;2022-10-15T15:22:35;0.90;;;0.90;;
65971;SDS011;52726;48.852;9.152;2022-10-15T15:25:03;2.85;;;0.90;;
65971;SDS011;52726;48.852;9.152;2022-10-15T15:27:34;1.50;;;1.13;;
65971;SDS011;52726;48.852;9.152;2022-10-15T15:30:02;1.50;;;1.20;;
65971;SDS011;52726;48.852;9.152;2022-10-15T15:32:29;0.90;;;0.90;;
65971;SDS011;52726;48.852;9.152;2022-10-15T15:34:54;12.30;;;1.02;;
65971;SDS011;52726;48.852;9.152;2022-10-15T15:37:21;1.05;;;0.90;;
65971;SDS011;52726;48.852;9.152;2022-10-15T15:39:48;1.10;;;0.82;;
65971;SDS011;52726;48.852;9.152;2022-10-15T15:42:15;1.48;;;1.27;;
65971;SDS011;52726;48.852;9.152;2022-10-15T15:44:44;2.38;;;0.82;;
65971;SDS011;52726;48.852;9.152;2022-10-15T15:47:10;1.63;;;0.82;;
65971;SDS011;52726;48.852;9.152;2022-10-15T15:49:36;1.65;;;1.05;;
65971;SDS011;52726;48.852;9.152;2022-10-15T15:52:02;0.75;;;0.75;;
65971;SDS011;52726;48.852;9.152;2022-10-15T15:54:29;3.97;;;0.70;;
65971;SDS011;52726;48.852;9.152;2022-10-15T15:56:54;3.70;;;0.52;;
65971;SDS011;52726;48.852;9.152;2022-10-15T15:59:20;3.28;;;0.80;;
65971;SDS011;52726;48.852;9.152;2022-10-15T16:01:45;4.40;;;0.93;;
65971;SDS011;52726;48.852;9.152;2022-10-15T16:04:11;2.92;;;0.80;;
65971;SDS011;52726;48.852;9.152;2022-10-15T16:06:37;2.50;;;1.10;;
65971;SDS011;52726;48.852;9.152;2022-10-15T16:09:03;0.60;;;0.60;;
65971;SDS011;52726;48.852;9.152;2022-10-15T16:11:29;0.50;;;0.50;;
65971;SDS011;52726;48.852;9.152;2022-10-15T16:13:56;3.30;;;0.80;;
65971;SDS011;52726;48.852;9.152;2022-10-15T16:16:21;2.92;;;0.73;;
65971;SDS011;52726;48.852;9.152;2022-10-15T16:18:46;2.72;;;0.77;;
65971;SDS011;52726;48.852;9.152;2022-10-15T16:21:12;1.15;;;0.60;;
65971;SDS011;52726;48.852;9.152;2022-10-15T16:23:37;1.65;;;0.55;;
65971;SDS011;52726;48.852;9.152;2022-10-15T16:26:02;2.20;;;0.68;;
65971;SDS011;52726;48.852;9.152;2022-10-15T16:28:28;1.55;;;0.90;;
65971;SDS011;52726;48.852;9.152;2022-10-15T16:30:53;1.42;;;0.90;;
65971;SDS011;52726;48.852;9.152;2022-10-15T16:33:18;4.70;;;0.88;;
65971;SDS011;52726;48.852;9.152;2022-10-15T16:35:49;0.57;;;0.57;;
65971;SDS011;52726;48.852;9.152;2022-10-15T16:38:15;3.95;;;0.70;;
65971;SDS011;52726;48.852;9.152;2022-10-15T16:40:40;0.70;;;0.50;;
65971;SDS011;52726;48.852;9.152;2022-10-15T16:43:09;2.75;;;0.80;;
65971;SDS011;52726;48.852;9.152;2022-10-15T16:45:35;8.18;;;0.50;;
65971;SDS011;52726;48.852;9.152;2022-10-15T16:48:00;0.50;;;0.50;;
65971;SDS011;52726;48.852;9.152;2022-10-15T16:50:25;2.05;;;0.82;;
65971;SDS011;52726;48.852;9.152;2022-10-15T16:52:51;2.38;;;1.17;;
65971;SDS011;52726;48.852;9.152;2022-10-15T16:55:16;0.40;;;0.40;;
65971;SDS011;52726;48.852;9.152;2022-10-15T16:57:41;0.60;;;0.60;;
65971;SDS011;52726;48.852;9.152;2022-10-15T17:00:08;0.40;;;0.40;;
65971;SDS011;52726;48.852;9.152;2022-10-15T17:02:34;1.42;;;0.65;;
65971;SDS011;52726;48.852;9.152;2022-10-15T17:05:03;0.95;;;0.68;;
65971;SDS011;52726;48.852;9.152;2022-10-15T17:07:29;1.38;;;0.73;;
65971;SDS011;52726;48.852;9.152;2022-10-15T17:09:55;1.20;;;0.80;;
65971;SDS011;52726;48.852;9.152;2022-10-15T17:12:21;2.83;;;1.17;;
65971;SDS011;52726;48.852;9.152;2022-10-15T17:14:49;5.10;;;1.00;;
65971;SDS011;52726;48.852;9.152;2022-10-15T17:17:15;0.75;;;0.63;;